Time;durP1;ratioP1;P1;durP2;ratioP2;P2;SDS_P1;SDS_P2;PMS_P1;PMS_P2;Temp;Humidity;BMP_temperature;BMP_pressure;BME280_temperature;BME280_humidity;BME280_pressure;Samples;Min_cycle;Max_cycle;Signal;HPM_P1;HPM_P2
2022/11/23 00:00:45;;;;;;;;;;;;;;;;;;2387718;62;1265;-72
2022/11/23 00:03:18;;;;;;;;;;;;;;;;;;2387901;54;1936;-72
2022/11/23 00:05:52;;;;;;;;;;;;;;;;;;2387594;62;934;-72
2022/11/23 00:08:25;;;;;;;;;;;;;;;;;;2383678;62;1366;-71
2022/11/23 00:10:59;;;;;;;;;;;;;;;;;;2387870;62;1177;-71
2022/11/23 00:13:34;;;;;;;;;;;;;;;;;;2387891;62;1023;-72
2022/11/23 00:16:10;;;;;;;;;;;;;;;;;;2387548;54;856;-72
2022/11/23 00:18:43;;;;;;;;;;;;;;;;;;2387676;62;1008;-72
2022/11/23 00:21:18;;;;;;;;;;;;;;;;;;2387804;54;1202;-72
2022/11/23 00:23:51;;;;;;;;;;;;;;;;;;2387647;62;1980;-72
2022/11/23 00:26:24;;;;;;;;;;;;;;;;;;2388016;62;832;-72
2022/11/23 00:28:57;;;;;;;;;;;;;;;;;;2387500;62;1020;-71
2022/11/23 06:31:36;;;;;;;;;;;;;;;;;;2385965;54;1795;-71
2022/11/23 06:34:09;;;;;;;;;;;;;;;;;;2386895;62;978;-72
2022/11/23 06:36:43;;;;;;;;;;;;;;;;;;2387186;62;855;-71
2022/11/23 06:39:16;;;;;;;;;;;;;;;;;;2387196;62;978;-71
2022/11/23 06:41:49;;;;;;;;;;;;;;;;;;2387264;62;1203;-71
2022/11/23 06:44:22;;;;;;;;;;;;;;;;;;2387163;62;1978;-71
2022/11/23 06:46:58;;;;;;;;;;;;;;;;;;2387486;62;1037;-71
2022/11/23 06:49:31;;;;;;;;;;;;;;;;;;2386839;54;923;-72
2022/11/23 06:52:04;;;;;;;;;;;;;;;;;;2383311;62;1255;-71
2022/11/23 06:54:38;;;;;;;;;;;;;;;;;;2387652;54;1003;-72
2022/11/23 06:57:11;;;;;;;;;;;;;;;;;;2387424;62;1011;-71
2022/11/23 06:59:44;;;;;;;;;;;;;;;;;;2386550;62;1014;-72
2022/11/23 07:02:20;;;;;;;;;;;;;;;;;;2386362;62;1202;-72
2022/11/23 07:04:53;;;;;;;;;;;;;;;;;;2386889;62;1010;-72
2022/11/23 07:07:26;;;;;;;;;;;;;;;;;;2386565;54;1036;-71
2022/11/23 07:09:59;;;;;;;;;;;;;;;;;;2386644;62;1030;-72
2022/11/23 07:12:33;;;;;;;;;;;;;;;;;;2386539;62;1213;-71
2022/11/23 07:15:06;;;;;;;;;;;;;;;;;;2386767;62;1027;-72
2022/11/23 07:17:43;;;;;;;;;;;;;;;;;;2386556;62;1014;-72
2022/11/23 07:20:16;;;;;;;;;;;;;;;;;;2386228;54;1224;-72
2022/11/23 07:22:49;;;;;;;;;;;;;;;;;;2386597;62;1931;-71
2022/11/23 07:25:22;;;;;;;;;;;;;;;;;;2386407;62;1161;-71
2022/11/23 07:27:56;;;;;;;;;;;;;;;;;;2386620;62;1118;-72
2022/11/23 07:30:30;;;;;;;;;;;;;;;;;;2386364;62;1066;-72
2022/11/23 07:33:08;;;;;;;;;;;;;;;;;;2387018;54;1224;-71
2022/11/23 07:35:41;;;;;;;;;;;;;;;;;;2386647;62;962;-71
2022/11/23 07:38:15;;;;;;;;;;;;;;;;;;2386683;62;1003;-71
2022/11/23 07:40:50;;;;;;;;;;;;;;;;;;2386768;62;995;-72
2022/11/23 07:43:23;;;;;;;;;;;;;;;;;;2382275;62;2113;-71
2022/11/23 07:45:57;;;;;;;;;;;;;;;;;;2386277;54;1008;-71
2022/11/23 07:48:33;;;;;;;;;;;;;;;;;;2385742;62;1044;-72
2022/11/23 07:51:06;;;;;;;;;;;;;;;;;;2386567;62;1212;-72
2022/11/23 07:53:39;;;;;;;;;;;;;;;;;;2386416;54;1046;-71
2022/11/23 07:56:12;;;;;;;;;;;;;;;;;;2386582;54;1039;-71
2022/11/23 07:58:45;;;;;;;;;;;;;;;;;;2386582;62;1013;-72
2022/11/23 08:01:19;;;;;;;;;;;;;;;;;;2386530;62;1171;-72
2022/11/23 08:03:55;;;;;;;;;;;;;;;;;;2385579;54;1916;-72
2022/11/23 08:06:28;;;;;;;;;;;;;;;;;;2382364;62;1868;-72
2022/11/23 08:09:01;;;;;;;;;;;;;;;;;;2381527;62;1014;-72
2022/11/23 08:11:34;;;;;;;;;;;;;;;;;;2385583;62;1198;-72
2022/11/23 08:14:07;;;;;;;;;;;;;;;;;;2380860;55;1437;-71
2022/11/23 08:16:41;;;;;;;;;;;;;;;;;;2386178;62;872;-72
2022/11/23 08:19:16;;;;;;;;;;;;;;;;;;2386152;62;1011;-72
2022/11/23 08:21:50;;;;;;;;;;;;;;;;;;2386316;62;1256;-72
2022/11/23 08:24:23;;;;;;;;;;;;;;;;;;2386186;62;1982;-72
2022/11/23 08:26:56;;;;;;;;;;;;;;;;;;2386592;62;1039;-72
2022/11/23 08:29:29;;;;;;;;;;;;;;;;;;2386410;62;1048;-72
2022/11/23 08:32:02;;;;;;;;;;;;;;;;;;2386341;54;1118;-72
2022/11/23 08:34:38;;;;;;;;;;;;;;;;;;2382009;62;1973;-72
2022/11/23 08:37:12;;;;;;;;;;;;;;;;;;2386495;62;829;-72
2022/11/23 08:39:45;;;;;;;;;;;;;;;;;;2385605;62;1013;-72
2022/11/23 08:42:18;;;;;;;;;;;;;;;;;;2386341;62;1195;-72
2022/11/23 08:44:51;;;;;;;;;;;;;;;;;;2386456;54;1927;-72
2022/11/23 08:47:24;;;;;;;;;;;;;;;;;;2386268;62;1062;-72
2022/11/23 08:50:00;;;;;;;;;;;;;;;;;;2386243;62;1038;-72
2022/11/23 08:52:33;;;;;;;;;;;;;;;;;;2386353;62;1214;-72
2022/11/23 08:55:07;;;;;;;;;;;;;;;;;;2386563;62;966;-72
2022/11/23 08:57:40;;;;;;;;;;;;;;;;;;2386407;62;1064;-72
2022/11/23 09:00:13;;;;;;;;;;;;;;;;;;2386413;62;1039;-72
2022/11/23 09:02:47;;;;;;;;;;;;;;;;;;2383175;62;1213;-72
2022/11/23 09:05:23;;;;;;;;;;;;;;;;;;2382631;62;1925;-72
2022/11/23 09:07:56;;;;;;;;;;;;;;;;;;2386214;62;998;-72
2022/11/23 09:10:29;;;;;;;;;;;;;;;;;;2381627;62;1145;-72
2022/11/23 09:13:03;;;;;;;;;;;;;;;;;;2384245;54;1181;-72
2022/11/23 09:15:36;;;;;;;;;;;;;;;;;;2386007;62;1015;-72
2022/11/23 09:18:10;;;;;;;;;;;;;;;;;;2386499;62;1004;-72
2022/11/23 09:20:46;;;;;;;;;;;;;;;;;;2386367;62;1026;-71
2022/11/23 09:23:19;;;;;;;;;;;;;;;;;;2385848;62;1928;-72
2022/11/23 09:25:52;;;;;;;;;;;;;;;;;;2386646;62;1044;-72
2022/11/23 09:28:26;;;;;;;;;;;;;;;;;;2386686;62;1040;-72
2022/11/23 09:30:59;;;;;;;;;;;;;;;;;;2385560;54;906;-72
2022/11/23 09:33:32;;;;;;;;;;;;;;;;;;2386410;54;1308;-72
2022/11/23 09:36:09;;;;;;;;;;;;;;;;;;2383537;62;901;-71
2022/11/23 09:38:42;;;;;;;;;;;;;;;;;;2386207;62;824;-72
2022/11/23 09:41:22;;;;;;;;;;;;;;;;;;2386545;62;1220;-72
2022/11/23 09:44:02;;;;;;;;;;;;;;;;;;2385852;62;1888;-72
2022/11/23 09:46:39;;;;;;;;;;;;;;;;;;2385388;62;1034;-72
2022/11/23 09:49:18;;;;;;;;;;;;;;;;;;2381715;62;1036;-72
2022/11/23 09:51:57;;;;;;;;;;;;;;;;;;2386247;62;1194;-72
2022/11/23 09:54:33;;;;;;;;;;;;;;;;;;2382671;62;1375;-72
2022/11/23 09:57:06;;;;;;;;;;;;;;;;;;2386441;54;959;-72
2022/11/23 09:59:42;;;;;;;;;;;;;;;;;;2386783;62;924;-72
2022/11/23 10:02:20;;;;;;;;;;;;;;;;;;2386712;62;1242;-72
2022/11/23 10:04:54;;;;;;;;;;;;;;;;;;2386766;62;1928;-72
2022/11/23 10:07:37;;;;;;;;;;;;;;;;;;2386866;62;960;-72
2022/11/23 10:10:15;;;;;;;;;;;;;;;;;;2386335;62;1026;-72
2022/11/23 10:12:55;;;;;;;;;;;;;;;;;;2386635;62;1148;-72
2022/11/23 10:15:29;;;;;;;;;;;;;;;;;;2386341;62;1023;-72
2022/11/23 10:18:23;;;;;;;;;;;;;;;;;;2386850;62;1051;-72
2022/11/23 10:21:00;;;;;;;;;;;;;;;;;;2386853;62;1042;-72
2022/11/23 10:23:51;;;;;;;;;;;;;;;;;;2386575;62;1923;-72
2022/11/23 10:26:30;;;;;;;;;;;;;;;;;;2383237;62;1079;-72
2022/11/23 10:29:11;;;;;;;;;;;;;;;;;;2386433;54;899;-71
2022/11/23 10:31:47;;;;;;;;;;;;;;;;;;2386835;54;1235;-72
2022/11/23 10:34:23;;;;;;;;;;;;;;;;;;2386409;62;1006;-72
2022/11/23 10:36:57;;;;;;;;;;;;;;;;;;2386272;62;962;-72
2022/11/23 10:39:30;;;;;;;;;;;;;;;;;;2385557;62;1004;-72
2022/11/23 10:42:14;;;;;;;;;;;;;;;;;;2385820;62;1138;-72
2022/11/23 10:44:48;;;;;;;;;;;;;;;;;;2385854;54;1914;-71
2022/11/23 10:47:35;;;;;;;;;;;;;;;;;;2385179;62;1036;-72
2022/11/23 10:50:21;;;;;;;;;;;;;;;;;;2386170;62;1046;-72
2022/11/23 10:52:55;;;;;;;;;;;;;;;;;;2386551;62;1203;-72
2022/11/23 10:55:30;;;;;;;;;;;;;;;;;;2386586;62;1022;-72
2022/11/23 10:58:06;;;;;;;;;;;;;;;;;;2386797;54;1059;-72
2022/11/23 11:00:40;;;;;;;;;;;;;;;;;;2382520;62;1844;-72
2022/11/23 11:03:24;;;;;;;;;;;;;;;;;;2386573;62;1182;-72
2022/11/23 11:05:59;;;;;;;;;;;;;;;;;;2387008;62;1953;-72
2022/11/23 11:08:33;;;;;;;;;;;;;;;;;;2386660;62;1074;-72
2022/11/23 11:11:07;;;;;;;;;;;;;;;;;;2386737;54;1197;-72
2022/11/23 11:13:45;;;;;;;;;;;;;;;;;;2386435;62;1058;-72
2022/11/23 11:16:21;;;;;;;;;;;;;;;;;;2386567;62;955;-72
2022/11/23 11:18:54;;;;;;;;;;;;;;;;;;2386314;62;1028;-72
2022/11/23 11:21:32;;;;;;;;;;;;;;;;;;2386366;62;1112;-71
2022/11/23 11:24:06;;;;;;;;;;;;;;;;;;2386692;62;1922;-72
2022/11/23 11:26:48;;;;;;;;;;;;;;;;;;2386703;62;1034;-72
2022/11/23 11:29:31;;;;;;;;;;;;;;;;;;2386339;62;1075;-72
2022/11/23 11:32:05;;;;;;;;;;;;;;;;;;2386879;54;1166;-72
2022/11/23 11:34:43;;;;;;;;;;;;;;;;;;2386738;62;1026;-72
2022/11/23 11:37:19;;;;;;;;;;;;;;;;;;2387175;62;927;-72
2022/11/23 11:39:55;;;;;;;;;;;;;;;;;;2386830;62;1022;-72
2022/11/23 11:42:32;;;;;;;;;;;;;;;;;;2386592;62;1118;-72
2022/11/23 11:45:15;;;;;;;;;;;;;;;;;;2386728;62;1995;-72
2022/11/23 11:47:52;;;;;;;;;;;;;;;;;;2382008;62;1784;-72
2022/11/23 11:50:26;;;;;;;;;;;;;;;;;;2386306;62;1031;-72
2022/11/23 11:53:04;;;;;;;;;;;;;;;;;;2387018;62;1240;-73
2022/11/23 11:55:45;;;;;;;;;;;;;;;;;;2386843;62;1095;-72
2022/11/23 11:58:19;;;;;;;;;;;;;;;;;;2386911;62;824;-72
2022/11/23 12:00:58;;;;;;;;;;;;;;;;;;2386980;62;1038;-72
2022/11/23 12:03:39;;;;;;;;;;;;;;;;;;2386648;54;1308;-72
2022/11/23 12:06:15;;;;;;;;;;;;;;;;;;2386914;62;1943;-72
2022/11/23 12:08:52;;;;;;;;;;;;;;;;;;2386826;62;908;-73
2022/11/23 12:11:25;;;;;;;;;;;;;;;;;;2386818;62;1267;-72
2022/11/23 12:14:01;;;;;;;;;;;;;;;;;;2383057;62;991;-72
2022/11/23 12:16:41;;;;;;;;;;;;;;;;;;2386434;54;1058;-73
2022/11/23 12:19:19;;;;;;;;;;;;;;;;;;2386567;62;1145;-72
2022/11/23 12:22:03;;;;;;;;;;;;;;;;;;2386642;62;1264;-72
2022/11/23 12:24:48;;;;;;;;;;;;;;;;;;2386828;54;1927;-72
2022/11/23 12:27:27;;;;;;;;;;;;;;;;;;2386818;62;1016;-72
2022/11/23 12:30:05;;;;;;;;;;;;;;;;;;2386879;62;1056;-72
2022/11/23 12:43:24;;;;;;;;;;;;;;;;;;2383432;54;1468;-72
2022/11/23 12:46:09;;;;;;;;;;;;;;;;;;2385708;62;1926;-72
2022/11/23 12:48:50;;;;;;;;;;;;;;;;;;2385387;62;1018;-72
2022/11/23 12:51:28;;;;;;;;;;;;;;;;;;2386295;62;771;-72
2022/11/23 12:54:08;;;;;;;;;;;;;;;;;;2386776;54;1259;-72
2022/11/23 12:57:02;;;;;;;;;;;;;;;;;;2382600;62;1188;-72
2022/11/23 12:59:42;;;;;;;;;;;;;;;;;;2382376;62;1221;-72
2022/11/23 13:02:31;;;;;;;;;;;;;;;;;;2386755;62;1245;-72
2022/11/23 13:05:22;;;;;;;;;;;;;;;;;;2386463;62;1939;-72
2022/11/23 13:08:16;;;;;;;;;;;;;;;;;;2382891;62;1141;-72
2022/11/23 13:10:59;;;;;;;;;;;;;;;;;;2385430;62;1051;-72
2022/11/23 13:13:38;;;;;;;;;;;;;;;;;;2385988;62;1220;-71
2022/11/23 13:16:32;;;;;;;;;;;;;;;;;;2386193;62;952;-72
2022/11/23 13:19:19;;;;;;;;;;;;;;;;;;2385515;62;1047;-72
2022/11/23 13:21:52;;;;;;;;;;;;;;;;;;2385891;62;971;-72
2022/11/23 13:24:26;;;;;;;;;;;;;;;;;;2381883;62;1458;-72
2022/11/23 13:27:18;;;;;;;;;;;;;;;;;;2386532;62;1946;-72
2022/11/23 13:29:59;;;;;;;;;;;;;;;;;;2386892;62;959;-72
2022/11/23 13:32:36;;;;;;;;;;;;;;;;;;2386655;62;1154;-72
2022/11/23 13:35:24;;;;;;;;;;;;;;;;;;2386771;62;1007;-72
2022/11/23 13:38:26;;;;;;;;;;;;;;;;;;2382373;62;1102;-72
2022/11/23 13:40:59;;;;;;;;;;;;;;;;;;2386412;54;1058;-72
2022/11/23 13:43:33;;;;;;;;;;;;;;;;;;2382076;54;1254;-72
2022/11/23 13:46:27;;;;;;;;;;;;;;;;;;2384754;62;1920;-72
2022/11/23 13:49:12;;;;;;;;;;;;;;;;;;2381437;62;1407;-73
2022/11/23 13:52:05;;;;;;;;;;;;;;;;;;2381864;62;1317;-73
2022/11/23 13:54:41;;;;;;;;;;;;;;;;;;2379230;54;1925;-73
2022/11/23 13:57:15;;;;;;;;;;;;;;;;;;2382123;62;1043;-72
2022/11/23 13:59:48;;;;;;;;;;;;;;;;;;2381617;62;1031;-72
2022/11/23 14:02:26;;;;;;;;;;;;;;;;;;2381587;62;1202;-72
2022/11/23 14:05:18;;;;;;;;;;;;;;;;;;2382067;62;1928;-73
2022/11/23 14:07:52;;;;;;;;;;;;;;;;;;2382165;54;1025;-72
2022/11/23 14:10:31;;;;;;;;;;;;;;;;;;2382018;62;830;-72
2022/11/23 14:13:06;;;;;;;;;;;;;;;;;;2382120;62;1184;-72
2022/11/23 14:15:41;;;;;;;;;;;;;;;;;;2382088;62;1151;-72
2022/11/23 14:18:26;;;;;;;;;;;;;;;;;;2382535;62;1141;-72
2022/11/23 14:21:05;;;;;;;;;;;;;;;;;;2382115;62;806;-72
2022/11/23 14:23:48;;;;;;;;;;;;;;;;;;2381890;62;1234;-73
2022/11/23 14:26:32;;;;;;;;;;;;;;;;;;2382209;62;1915;-72
2022/11/23 14:29:22;;;;;;;;;;;;;;;;;;2381876;55;1026;-72
2022/11/23 14:32:05;;;;;;;;;;;;;;;;;;2382072;62;1215;-72
2022/11/23 14:34:44;;;;;;;;;;;;;;;;;;2381978;62;1304;-72
2022/11/23 14:37:22;;;;;;;;;;;;;;;;;;2382592;62;958;-72
2022/11/23 14:39:59;;;;;;;;;;;;;;;;;;2381773;62;1032;-72
2022/11/23 14:42:39;;;;;;;;;;;;;;;;;;2381990;55;1204;-72
2022/11/23 14:45:14;;;;;;;;;;;;;;;;;;2381965;62;1983;-72
2022/11/23 14:47:48;;;;;;;;;;;;;;;;;;2382152;62;1014;-72
2022/11/23 14:50:25;;;;;;;;;;;;;;;;;;2381629;62;1035;-72
2022/11/23 14:53:00;;;;;;;;;;;;;;;;;;2381534;62;1184;-72
2022/11/23 14:55:33;;;;;;;;;;;;;;;;;;2385267;54;1034;-72
2022/11/23 14:58:09;;;;;;;;;;;;;;;;;;2386585;62;968;-73
2022/11/23 15:00:44;;;;;;;;;;;;;;;;;;2386066;54;989;-72
2022/11/23 15:03:19;;;;;;;;;;;;;;;;;;2386223;54;1248;-72
2022/11/23 15:05:54;;;;;;;;;;;;;;;;;;2386131;62;1935;-72
2022/11/23 15:08:30;;;;;;;;;;;;;;;;;;2385704;62;1013;-72
2022/11/23 15:11:08;;;;;;;;;;;;;;;;;;2384547;62;908;-72
2022/11/23 15:13:47;;;;;;;;;;;;;;;;;;2385117;62;1194;-73
2022/11/23 15:16:21;;;;;;;;;;;;;;;;;;2385599;62;886;-72
2022/11/23 15:18:54;;;;;;;;;;;;;;;;;;2386047;62;924;-72
2022/11/23 15:21:28;;;;;;;;;;;;;;;;;;2385853;62;939;-72
2022/11/23 15:24:01;;;;;;;;;;;;;;;;;;2385573;54;1273;-72
2022/11/23 15:26:36;;;;;;;;;;;;;;;;;;2385777;54;1925;-72
2022/11/23 15:29:24;;;;;;;;;;;;;;;;;;2385356;62;1046;-72
2022/11/23 15:32:00;;;;;;;;;;;;;;;;;;2385646;54;1251;-72
2022/11/23 15:34:33;;;;;;;;;;;;;;;;;;2386522;62;1210;-72
2022/11/23 15:37:06;;;;;;;;;;;;;;;;;;2382581;62;1038;-72
2022/11/23 15:39:39;;;;;;;;;;;;;;;;;;2386412;62;962;-72
2022/11/23 15:42:17;;;;;;;;;;;;;;;;;;2386137;62;1138;-72
2022/11/23 15:44:51;;;;;;;;;;;;;;;;;;2385056;62;1028;-72
2022/11/23 15:47:29;;;;;;;;;;;;;;;;;;2383697;54;1930;-72
2022/11/23 15:50:03;;;;;;;;;;;;;;;;;;2384329;54;813;-72
2022/11/23 15:52:38;;;;;;;;;;;;;;;;;;2380915;62;1267;-71
2022/11/23 15:55:15;;;;;;;;;;;;;;;;;;2385869;54;983;-72
2022/11/23 15:57:49;;;;;;;;;;;;;;;;;;2386304;62;1053;-72
2022/11/23 16:00:23;;;;;;;;;;;;;;;;;;2384967;62;1137;-72
2022/11/23 16:06:07;;;;;;;;;;;;;;;;;;2213875;58;2200;-72
2022/11/23 16:08:44;;;;;;;;;;;;;;;;;;2225235;58;1425;-72
2022/11/23 16:11:21;;;;;;;;;;;;;;;;;;2225634;58;1518;-72
2022/11/23 16:14:11;;;;;;;;;;;;;;;;;;2211327;58;1525;-72
2022/11/23 16:16:45;;;;;;;;;;;;;;;;;;2224419;58;1500;-72
2022/11/23 16:19:30;;;;;;;;;;;;;;;;;;2224135;58;1408;-72
2022/11/23 16:22:05;;;;;;;;;;;;;;;;;;2211482;66;1022;-72
2022/11/23 16:24:41;;;;;;;;;;;;;;;;;;2222824;58;1939;-72
2022/11/23 16:27:15;;;;;;;;;;;;;;;;;;2212082;66;1170;-72
2022/11/23 16:29:51;;;;;;;;;;;;;;;;;;2211791;59;1105;-74
2022/11/23 16:32:28;;;;;;;;;;;;;;;;;;2211863;59;1184;-72
2022/11/23 16:35:11;;;;;;;;;;;;;;;;;;2225343;66;1410;-72
2022/11/23 16:37:44;;;;;;;;;;;;;;;;;;2223986;66;1259;-73
2022/11/23 16:40:20;;;;;;;;;;;;;;;;;;2212046;58;1730;-72
2022/11/23 16:42:54;;;;;;;;;;;;;;;;;;2213128;58;1954;-72
2022/11/23 16:45:27;;;;;;;;;;;;;;;;;;2213615;59;1932;-72
2022/11/23 16:48:01;;;;;;;;;;;;;;;;;;2213283;59;1177;-72
2022/11/23 16:50:35;;;;;;;;;;;;;;;;;;2224096;58;1240;-72
2022/11/23 16:53:13;;;;;;;;;;;;;;;;;;2222854;66;2544;-73
2022/11/23 16:55:52;;;;;;;;;;;;;;;;;;2211839;66;1124;-72
2022/11/23 16:58:25;;;;;;;;;;;;;;;;;;2224858;59;1374;-72
2022/11/23 17:00:59;;;;;;;;;;;;;;;;;;2225112;66;1225;-72
2022/11/23 17:03:32;;;;;;;;;;;;;;;;;;2222970;58;2189;-73
2022/11/23 17:06:06;;;;;;;;;;;;;;;;;;2212534;59;2024;-72
2022/11/23 17:08:39;;;;;;;;;;;;;;;;;;2224872;58;2109;-72
2022/11/23 17:11:17;;;;;;;;;;;;;;;;;;2223878;58;1451;-72
2022/11/23 17:13:52;;;;;;;;;;;;;;;;;;2211487;59;1802;-72
2022/11/23 17:16:27;;;;;;;;;;;;;;;;;;2211021;66;1164;-72
2022/11/23 17:19:02;;;;;;;;;;;;;;;;;;2221641;58;1412;-73
2022/11/23 17:21:37;;;;;;;;;;;;;;;;;;2210543;59;1664;-72
2022/11/23 17:24:13;;;;;;;;;;;;;;;;;;2222051;66;1924;-72
2022/11/23 17:26:58;;;;;;;;;;;;;;;;;;2223173;66;1234;-71
2022/11/23 17:29:33;;;;;;;;;;;;;;;;;;2223100;58;1562;-71
2022/11/23 17:32:07;;;;;;;;;;;;;;;;;;2210361;67;1327;-72
2022/11/23 17:34:41;;;;;;;;;;;;;;;;;;2221562;58;1737;-71
2022/11/23 17:37:18;;;;;;;;;;;;;;;;;;2222122;66;1222;-72
2022/11/23 17:39:52;;;;;;;;;;;;;;;;;;2210067;59;1713;-71
2022/11/23 17:42:30;;;;;;;;;;;;;;;;;;2210115;67;1191;-71
2022/11/23 17:45:03;;;;;;;;;;;;;;;;;;2221881;66;1945;-71
2022/11/23 17:47:37;;;;;;;;;;;;;;;;;;2209935;67;1095;-71
2022/11/23 17:50:12;;;;;;;;;;;;;;;;;;2221896;59;1216;-72
2022/11/23 17:52:45;;;;;;;;;;;;;;;;;;2208944;59;2779;-71
2022/11/23 17:55:19;;;;;;;;;;;;;;;;;;2221249;59;2404;-71
2022/11/23 17:57:55;;;;;;;;;;;;;;;;;;2210152;67;1129;-71
2022/11/23 18:00:29;;;;;;;;;;;;;;;;;;2210535;67;1078;-71
2022/11/23 18:03:02;;;;;;;;;;;;;;;;;;2209925;67;1301;-72
2022/11/23 18:05:36;;;;;;;;;;;;;;;;;;2208834;58;1957;-72
2022/11/23 18:08:09;;;;;;;;;;;;;;;;;;2223138;58;1721;-71
2022/11/23 18:10:42;;;;;;;;;;;;;;;;;;2220989;66;1233;-72
2022/11/23 18:13:18;;;;;;;;;;;;;;;;;;2209701;59;1463;-72
2022/11/23 18:15:51;;;;;;;;;;;;;;;;;;2220878;58;2655;-71
2022/11/23 18:18:25;;;;;;;;;;;;;;;;;;2210530;67;1068;-71
2022/11/23 18:20:58;;;;;;;;;;;;;;;;;;2210356;59;1474;-71
2022/11/23 18:23:31;;;;;;;;;;;;;;;;;;2222749;66;1314;-71
2022/11/23 18:26:05;;;;;;;;;;;;;;;;;;2210189;58;1939;-71
2022/11/23 18:28:41;;;;;;;;;;;;;;;;;;2209942;67;1078;-71
2022/11/23 18:31:15;;;;;;;;;;;;;;;;;;2210073;67;1112;-71
2022/11/23 18:33:48;;;;;;;;;;;;;;;;;;2209713;59;1277;-71
2022/11/23 18:36:21;;;;;;;;;;;;;;;;;;2210021;67;1217;-71
2022/11/23 18:38:55;;;;;;;;;;;;;;;;;;2210110;67;1128;-71
2022/11/23 18:41:28;;;;;;;;;;;;;;;;;;2210628;59;1165;-71
2022/11/23 18:55:05;;;;;;;;;;;;;;;;;;2223699;53;1897;-73
2022/11/23 18:57:38;;;;;;;;;;;;;;;;;;2211697;66;1153;-73
2022/11/23 19:00:14;;;;;;;;;;;;;;;;;;2213650;59;1186;-73
2022/11/23 19:02:52;;;;;;;;;;;;;;;;;;2213754;58;1260;-74
2022/11/23 19:05:25;;;;;;;;;;;;;;;;;;2206343;59;1937;-73
2022/11/23 19:08:04;;;;;;;;;;;;;;;;;;2209229;59;1995;-73
2022/11/23 19:10:40;;;;;;;;;;;;;;;;;;2204760;66;1109;-73
2022/11/23 19:13:13;;;;;;;;;;;;;;;;;;2209025;59;1960;-73
2022/11/23 19:15:46;;;;;;;;;;;;;;;;;;2209702;59;1784;-73
2022/11/23 19:18:19;;;;;;;;;;;;;;;;;;2207064;67;1232;-73
2022/11/23 19:20:52;;;;;;;;;;;;;;;;;;2209791;59;1149;-73
2022/11/23 19:23:26;;;;;;;;;;;;;;;;;;2210928;66;1238;-74
2022/11/23 19:26:05;;;;;;;;;;;;;;;;;;2210530;66;2081;-73
2022/11/23 19:28:43;;;;;;;;;;;;;;;;;;2210678;66;1101;-73
2022/11/23 19:31:17;;;;;;;;;;;;;;;;;;2210796;66;1234;-73
2022/11/23 19:33:51;;;;;;;;;;;;;;;;;;2210930;66;1315;-73
2022/11/23 19:36:25;;;;;;;;;;;;;;;;;;2211100;59;1140;-73
2022/11/23 19:38:59;;;;;;;;;;;;;;;;;;2210424;66;1187;-73
2022/11/23 19:41:35;;;;;;;;;;;;;;;;;;2210614;59;1226;-73
2022/11/23 19:44:08;;;;;;;;;;;;;;;;;;2211003;59;1238;-73
2022/11/23 19:46:41;;;;;;;;;;;;;;;;;;2210613;66;1939;-73
2022/11/23 19:49:14;;;;;;;;;;;;;;;;;;2210775;66;1187;-73
2022/11/23 19:51:51;;;;;;;;;;;;;;;;;;2210871;59;1012;-73
2022/11/23 19:54:24;;;;;;;;;;;;;;;;;;2210608;59;1676;-73
2022/11/23 19:57:00;;;;;;;;;;;;;;;;;;2211093;59;1180;-73
2022/11/23 19:59:33;;;;;;;;;;;;;;;;;;2210279;59;1042;-73
2022/11/23 20:02:06;;;;;;;;;;;;;;;;;;2210958;66;1157;-73
2022/11/23 20:04:39;;;;;;;;;;;;;;;;;;2211536;66;1957;-73
2022/11/23 20:07:13;;;;;;;;;;;;;;;;;;2210919;59;1760;-73
2022/11/23 20:09:46;;;;;;;;;;;;;;;;;;2210956;66;1120;-73
2022/11/23 20:12:22;;;;;;;;;;;;;;;;;;2210619;58;1559;-73
2022/11/23 20:14:55;;;;;;;;;;;;;;;;;;2211178;59;1564;-73
2022/11/23 20:17:28;;;;;;;;;;;;;;;;;;2209525;59;1711;-73
2022/11/23 20:20:02;;;;;;;;;;;;;;;;;;2209206;59;1090;-73
2022/11/23 20:22:35;;;;;;;;;;;;;;;;;;2210085;66;1107;-73
2022/11/23 20:25:09;;;;;;;;;;;;;;;;;;2210975;66;1928;-73
2022/11/23 20:27:45;;;;;;;;;;;;;;;;;;2210653;66;1069;-73
2022/11/23 20:30:19;;;;;;;;;;;;;;;;;;2210598;59;1109;-73
2022/11/23 20:32:52;;;;;;;;;;;;;;;;;;2210723;66;1292;-73
2022/11/23 20:35:25;;;;;;;;;;;;;;;;;;2211029;59;1198;-73
2022/11/23 20:37:58;;;;;;;;;;;;;;;;;;2210124;59;1185;-73
2022/11/23 20:40:32;;;;;;;;;;;;;;;;;;2210549;59;1125;-73
2022/11/23 20:43:07;;;;;;;;;;;;;;;;;;2210903;59;1218;-73
2022/11/23 20:45:41;;;;;;;;;;;;;;;;;;2210319;59;1937;-73
2022/11/23 20:48:14;;;;;;;;;;;;;;;;;;2211055;66;1116;-73
2022/11/23 20:50:47;;;;;;;;;;;;;;;;;;2211123;66;1022;-73
2022/11/23 20:53:20;;;;;;;;;;;;;;;;;;2211655;59;1226;-73
2022/11/23 20:55:53;;;;;;;;;;;;;;;;;;2212007;66;1151;-73
2022/11/23 20:58:29;;;;;;;;;;;;;;;;;;2207352;59;1209;-74
2022/11/23 21:01:04;;;;;;;;;;;;;;;;;;2211945;59;1129;-73
2022/11/23 21:03:38;;;;;;;;;;;;;;;;;;2211012;66;1251;-73
2022/11/23 21:06:12;;;;;;;;;;;;;;;;;;2211413;59;1945;-73
2022/11/23 21:08:46;;;;;;;;;;;;;;;;;;2210761;66;1128;-73
2022/11/23 21:14:14;;;;;;;;;;;;;;;;;;2209816;59;1882;-73
2022/11/23 21:16:51;;;;;;;;;;;;;;;;;;2210349;66;1073;-73
2022/11/23 21:19:26;;;;;;;;;;;;;;;;;;2210778;59;1192;-73
2022/11/23 21:22:00;;;;;;;;;;;;;;;;;;2210736;66;1076;-73
2022/11/23 21:24:33;;;;;;;;;;;;;;;;;;2212055;66;1264;-73
2022/11/23 21:27:07;;;;;;;;;;;;;;;;;;2211462;66;1904;-72
2022/11/23 21:29:45;;;;;;;;;;;;;;;;;;2211009;66;1020;-72
2022/11/23 21:32:18;;;;;;;;;;;;;;;;;;2211238;66;1068;-73
2022/11/23 21:34:51;;;;;;;;;;;;;;;;;;2211480;66;1300;-72
2022/11/23 21:37:24;;;;;;;;;;;;;;;;;;2211403;59;1236;-72
2022/11/23 21:39:58;;;;;;;;;;;;;;;;;;2211833;59;1081;-72
2022/11/23 21:42:31;;;;;;;;;;;;;;;;;;2211436;59;1146;-72
2022/11/23 21:45:07;;;;;;;;;;;;;;;;;;2211546;59;1290;-72
2022/11/23 21:47:40;;;;;;;;;;;;;;;;;;2210780;66;1937;-72
2022/11/23 21:50:14;;;;;;;;;;;;;;;;;;2210369;59;1726;-72
2022/11/23 21:52:47;;;;;;;;;;;;;;;;;;2210280;66;1254;-72
2022/11/23 21:55:20;;;;;;;;;;;;;;;;;;2209894;59;1759;-72
2022/11/23 21:57:53;;;;;;;;;;;;;;;;;;2210546;59;1187;-72
2022/11/23 22:00:29;;;;;;;;;;;;;;;;;;2211234;59;1079;-72
2022/11/23 22:03:02;;;;;;;;;;;;;;;;;;2211376;66;1266;-72
2022/11/23 22:05:35;;;;;;;;;;;;;;;;;;2211470;66;1945;-72
2022/11/23 22:08:08;;;;;;;;;;;;;;;;;;2211117;66;1147;-72
2022/11/23 22:10:41;;;;;;;;;;;;;;;;;;2211719;66;1054;-72
2022/11/23 22:13:15;;;;;;;;;;;;;;;;;;2211490;59;1576;-72
2022/11/23 22:15:51;;;;;;;;;;;;;;;;;;2210757;59;1676;-72
2022/11/23 22:18:24;;;;;;;;;;;;;;;;;;2211525;59;1213;-72
2022/11/23 22:21:04;;;;;;;;;;;;;;;;;;2211509;66;1048;-72
2022/11/23 22:23:37;;;;;;;;;;;;;;;;;;2212870;66;1245;-72
2022/11/23 22:26:11;;;;;;;;;;;;;;;;;;2207818;59;1973;-71
2022/11/23 22:28:45;;;;;;;;;;;;;;;;;;2212395;66;1303;-72
2022/11/23 22:31:22;;;;;;;;;;;;;;;;;;2211863;59;1023;-72
2022/11/23 22:33:55;;;;;;;;;;;;;;;;;;2211665;66;1221;-72
2022/11/23 22:36:29;;;;;;;;;;;;;;;;;;2212305;66;1220;-72
2022/11/23 22:39:02;;;;;;;;;;;;;;;;;;2211138;59;1819;-72
2022/11/23 22:41:36;;;;;;;;;;;;;;;;;;2208001;67;1282;-72
2022/11/23 22:44:10;;;;;;;;;;;;;;;;;;2212395;59;1270;-72
2022/11/23 22:46:46;;;;;;;;;;;;;;;;;;2210500;59;1941;-72
2022/11/23 22:49:20;;;;;;;;;;;;;;;;;;2211104;66;1076;-72
2022/11/23 22:51:53;;;;;;;;;;;;;;;;;;2210206;66;1238;-72
2022/11/23 22:54:27;;;;;;;;;;;;;;;;;;2211237;66;1338;-72
2022/11/23 22:57:00;;;;;;;;;;;;;;;;;;2210209;66;1080;-72
2022/11/23 22:59:34;;;;;;;;;;;;;;;;;;2208439;66;1668;-72
2022/11/23 23:02:09;;;;;;;;;;;;;;;;;;2210931;66;1135;-72
2022/11/23 23:04:43;;;;;;;;;;;;;;;;;;2210604;59;1768;-72
2022/11/23 23:07:16;;;;;;;;;;;;;;;;;;2210692;66;1923;-72
2022/11/23 23:09:49;;;;;;;;;;;;;;;;;;2211050;66;1036;-72
2022/11/23 23:12:22;;;;;;;;;;;;;;;;;;2211897;59;1631;-72
2022/11/23 23:14:55;;;;;;;;;;;;;;;;;;2211045;59;1645;-72
2022/11/23 23:17:31;;;;;;;;;;;;;;;;;;2211329;66;1135;-72
2022/11/23 23:20:04;;;;;;;;;;;;;;;;;;2211442;66;1168;-72
2022/11/23 23:22:38;;;;;;;;;;;;;;;;;;2211682;66;1006;-72
2022/11/23 23:25:11;;;;;;;;;;;;;;;;;;2211567;66;1387;-73
2022/11/23 23:27:44;;;;;;;;;;;;;;;;;;2211765;66;1933;-72
2022/11/23 23:30:18;;;;;;;;;;;;;;;;;;2211876;66;1091;-72
2022/11/23 23:32:56;;;;;;;;;;;;;;;;;;2211995;66;1220;-72
2022/11/23 23:35:30;;;;;;;;;;;;;;;;;;2212360;66;1005;-72
2022/11/23 23:38:03;;;;;;;;;;;;;;;;;;2212054;66;1229;-72
2022/11/23 23:40:36;;;;;;;;;;;;;;;;;;2212410;66;1120;-72
2022/11/23 23:43:09;;;;;;;;;;;;;;;;;;2212457;66;1286;-72
2022/11/23 23:45:42;;;;;;;;;;;;;;;;;;2211356;59;1683;-72
2022/11/23 23:48:18;;;;;;;;;;;;;;;;;;2212072;66;1934;-72
2022/11/23 23:50:51;;;;;;;;;;;;;;;;;;2212201;66;1171;-72
2022/11/23 23:53:25;;;;;;;;;;;;;;;;;;2211688;59;1698;-73
2022/11/23 23:55:58;;;;;;;;;;;;;;;;;;2210329;66;1082;-72
2022/11/23 23:58:32;;;;;;;;;;;;;;;;;;2211388;66;1175;-72
